Pagina principale
METAR-TAF:

METAR-TAF

Aeroporti :

Praia, Capo Verde

latitudine: 14-55-27N, longitudine: 23-29-38W, altezza: 70 m

Osservazione

Il bollettino è stato emesso 30 minuti fa, alle 19:00 UTC
Vento 17 kt da nord/nord-est
Temperature 27°C
Umidità 66%
Pressione 1016 hPa
Visibilità 10 km o più
Poco nuvoloso ad un'altezza di 1300 ft
Nubi sparse ad un'altezza di 20000 ft

METAR: GVNP 191900Z 03017KT 9999 FEW013 SCT200 27/20 Q1016 NOSIG

Ora: 18:30 (19:30 UTC)

Previsione

Il bollettino è stato emesso 2 ore e 30 minuti fa, alle 17:00 UTC
Previsione valida dal 19 alle 18 UTC al 20 alle 24 UTC
Vento 16 kt da nord/nord-est
Visibilità 10 km o più
Poco nuvoloso ad un'altezza di 1500 ft
Probabilità 30% :
Temporaneamente
dal 20 alle 12 UTC al 20 alle 18 UTC
Vento 18 kt da nord/nord-est con raffiche fino a 28 kt

TAF: GVNP 191700Z 1918/2024 03016KT 9999 FEW015 PROB30 TEMPO 2012/2018 03018G28KT

Osservazioni e previsioni meteorologiche di più di 4000 aeroporti (messaggi METAR e TAF).

Le stazioni disponibili sono rappresentate dai dischi gialli e rossi sulla carta.

Puntare il mouse per vedere il nome della stazione.

Clicca sopra per visualizzare le osservazioni e previsioni meteorologiche.

Per cambiare la mappa : fare clic sui pulsanti verdi con una croce nera per ingrandire, il pulsante verde con un trattino per diminuire, o sulla freccia verde per le mappe adiacenti.


METAR-TAF: